createdAt,value
2019-03-06T00:00:18.389Z,87.44
2019-03-06T00:05:14.504Z,87.53
2019-03-06T00:10:23.324Z,87.56
2019-03-06T00:15:19.334Z,87.74
2019-03-06T00:20:19.302Z,87.07
2019-03-06T00:25:15.429Z,86.86
2019-03-06T00:30:15.901Z,87.36
2019-03-06T00:35:20.792Z,87.80
2019-03-06T00:40:18.801Z,87.37
2019-03-06T00:45:14.828Z,87.43
2019-03-06T00:50:11.843Z,87.48
2019-03-06T00:55:09.881Z,87.03
2019-03-06T01:00:12.379Z,86.64
2019-03-06T01:05:09.511Z,87.16
2019-03-06T01:10:13.249Z,86.92
2019-03-06T01:15:10.161Z,87.04
2019-03-06T01:20:17.282Z,86.92
2019-03-06T01:25:15.310Z,87.33
2019-03-06T01:30:15.036Z,87.20
2019-03-06T01:35:18.619Z,87.37
2019-03-06T01:40:19.188Z,87.02
2019-03-06T01:45:15.185Z,87.32
2019-03-06T01:50:11.970Z,86.96
2019-03-06T01:55:10.697Z,86.63
2019-03-06T02:00:10.437Z,86.71
2019-03-06T02:05:09.251Z,86.12
2019-03-06T02:10:08.323Z,86.34
2019-03-06T02:15:08.040Z,86.33
2019-03-06T02:20:11.681Z,86.39
2019-03-06T02:25:07.612Z,86.59
2019-03-06T02:30:12.944Z,86.67
2019-03-06T02:35:08.996Z,86.00
2019-03-06T02:40:07.816Z,85.66
2019-03-06T02:45:10.291Z,85.55
2019-03-06T02:50:10.202Z,85.67
2019-03-06T02:55:08.529Z,84.92
2019-03-06T03:00:13.179Z,85.15
2019-03-06T03:05:14.197Z,84.92
2019-03-06T03:10:10.405Z,84.83
2019-03-06T03:15:08.221Z,85.20
2019-03-06T03:20:10.840Z,84.48
2019-03-06T03:25:06.951Z,84.64
2019-03-06T03:30:09.309Z,83.98
2019-03-06T03:35:05.339Z,84.38
2019-03-06T03:40:01.754Z,83.84
2019-03-06T03:44:57.861Z,83.84
2019-03-06T03:49:55.143Z,84.13
2019-03-06T03:54:51.236Z,83.75
2019-03-06T03:59:47.154Z,83.99
2019-03-06T04:04:43.064Z,84.53
2019-03-06T04:09:39.004Z,84.44
2019-03-06T04:14:34.912Z,84.93
2019-03-06T04:19:30.834Z,85.03
2019-03-06T04:24:26.756Z,84.62
2019-03-06T04:29:22.741Z,84.58
2019-03-06T04:34:18.665Z,84.87
2019-03-06T04:39:14.588Z,84.94
2019-03-06T04:44:10.498Z,85.24
2019-03-06T04:49:06.419Z,85.79
2019-03-06T04:54:02.636Z,86.51
2019-03-06T04:59:01.388Z,86.85
2019-03-06T05:03:57.394Z,86.92
2019-03-06T05:08:53.329Z,87.50
2019-03-06T05:13:49.239Z,88.33
2019-03-06T05:18:47.060Z,88.12
2019-03-06T05:23:42.966Z,88.29
2019-03-06T05:28:38.888Z,88.34
2019-03-06T05:33:35.098Z,88.32
2019-03-06T05:38:43.846Z,88.32
2019-03-06T05:43:39.762Z,88.37
2019-03-06T05:48:35.679Z,88.31
2019-03-06T05:53:31.581Z,88.37
2019-03-06T05:58:27.491Z,88.35
2019-03-06T06:03:23.399Z,88.34
2019-03-06T06:08:19.315Z,88.14
2019-03-06T06:13:15.222Z,87.87
2019-03-06T06:18:11.107Z,87.56
2019-03-06T06:23:25.448Z,87.29
2019-03-06T06:28:21.354Z,87.28
2019-03-06T06:33:17.314Z,87.26
2019-03-06T06:38:13.267Z,86.79
2019-03-06T06:43:09.172Z,86.95
2019-03-06T06:48:13.383Z,86.23
2019-03-06T06:53:31.199Z,86.01
2019-03-06T06:58:40.278Z,85.94
2019-03-06T07:04:14.274Z,85.54
2019-03-06T07:09:14.909Z,85.38
2019-03-06T07:14:15.501Z,85.15
2019-03-06T07:19:15.827Z,85.13
2019-03-06T07:24:17.339Z,84.90
2019-03-06T07:29:15.137Z,84.83
2019-03-06T07:34:13.055Z,84.56
2019-03-06T07:39:13.931Z,84.14
2019-03-06T07:44:30.490Z,83.80
2019-03-06T07:49:44.817Z,83.45
2019-03-06T07:54:36.902Z,83.35
2019-03-06T07:59:32.789Z,82.58
2019-03-06T08:04:28.816Z,81.73
2019-03-06T08:09:24.832Z,81.25
2019-03-06T08:14:22.663Z,81.02
2019-03-06T08:24:37.129Z,80.16
2019-03-06T08:29:33.058Z,79.57
2019-03-06T08:34:29.005Z,79.14
2019-03-06T08:39:24.953Z,78.65
2019-03-06T08:44:20.870Z,77.94
2019-03-06T08:49:30.434Z,77.89
2019-03-06T08:54:37.332Z,77.35
2019-03-06T08:59:50.811Z,76.98
2019-03-06T09:04:48.745Z,76.74
2019-03-06T09:09:46.584Z,75.82
2019-03-06T09:14:47.357Z,74.68
2019-03-06T09:25:01.773Z,73.64
2019-03-06T09:30:15.779Z,73.50
2019-03-06T09:35:26.768Z,72.95
2019-03-06T09:40:27.432Z,72.27
2019-03-06T09:45:32.961Z,72.29
2019-03-06T09:50:48.684Z,71.75
2019-03-06T09:55:51.437Z,71.54
2019-03-06T10:01:05.563Z,71.00
2019-03-06T10:06:16.301Z,70.43
2019-03-06T10:16:23.215Z,69.36
2019-03-06T10:21:19.342Z,67.90
2019-03-06T10:26:15.354Z,67.70
2019-03-06T10:31:11.282Z,67.42
2019-03-06T10:36:07.199Z,66.62
2019-03-06T10:41:03.215Z,65.88
2019-03-06T10:45:59.221Z,64.93
2019-03-06T10:50:55.862Z,64.00
2019-03-06T10:55:52.047Z,62.92
2019-03-06T11:00:52.541Z,62.57
2019-03-06T11:05:48.593Z,62.07
2019-03-06T11:10:44.704Z,62.12
2019-03-06T11:15:40.814Z,60.99
2019-03-06T11:20:37.554Z,61.15
2019-03-06T11:25:34.226Z,60.29
2019-03-06T11:30:48.959Z,58.84
2019-03-06T11:35:45.574Z,59.10
2019-03-06T11:40:41.855Z,57.09
2019-03-06T11:45:38.903Z,56.72
2019-03-06T11:50:40.947Z,56.48
2019-03-06T11:55:34.054Z,55.57
2019-03-06T12:00:31.974Z,55.69
2019-03-06T12:05:28.098Z,54.19
2019-03-06T12:10:24.903Z,53.67
2019-03-06T12:15:21.040Z,52.02
2019-03-06T12:20:25.531Z,50.89
2019-03-06T12:25:21.664Z,51.35
2019-03-06T12:30:17.983Z,52.58
2019-03-06T12:35:15.497Z,52.18
2019-03-06T12:40:14.924Z,52.46
2019-03-06T12:45:15.762Z,52.54
2019-03-06T12:50:15.963Z,52.19
2019-03-06T12:55:12.081Z,53.55
2019-03-06T13:00:16.156Z,53.38
2019-03-06T13:05:12.253Z,53.34
2019-03-06T13:10:10.668Z,53.43
2019-03-06T13:15:10.223Z,52.76
2019-03-06T13:20:09.637Z,53.17
2019-03-06T13:25:08.985Z,52.51
2019-03-06T13:30:12.274Z,53.76
2019-03-06T13:35:10.075Z,54.33
2019-03-06T13:40:06.693Z,54.67
2019-03-06T13:45:07.673Z,55.03
2019-03-06T13:50:07.559Z,55.71
2019-03-06T13:55:10.006Z,55.21
2019-03-06T14:00:10.151Z,55.03
2019-03-06T14:05:07.366Z,54.43
2019-03-06T14:10:06.263Z,53.96
2019-03-06T14:15:04.587Z,54.18
2019-03-06T14:20:01.092Z,55.00
2019-03-06T14:24:57.007Z,55.42
2019-03-06T14:29:52.935Z,55.17
2019-03-06T14:34:49.663Z,55.05
2019-03-06T14:39:45.757Z,55.26
2019-03-06T14:44:41.763Z,55.45
2019-03-06T14:49:37.669Z,55.09
2019-03-06T14:54:33.577Z,55.73
2019-03-06T14:59:29.585Z,55.67
2019-03-06T15:04:25.518Z,55.65
2019-03-06T15:09:23.413Z,55.40
2019-03-06T15:14:19.328Z,55.40
2019-03-06T15:19:15.259Z,55.85
2019-03-06T15:24:11.165Z,55.51
2019-03-06T15:29:07.114Z,55.87
2019-03-06T15:34:03.426Z,56.66
2019-03-06T15:39:02.868Z,57.19
2019-03-06T15:44:00.145Z,57.36
2019-03-06T15:48:56.139Z,57.99
2019-03-06T15:53:52.067Z,58.29
2019-03-06T15:58:47.971Z,58.42
2019-03-06T16:03:43.987Z,58.53
2019-03-06T16:08:40.811Z,59.38
2019-03-06T16:13:36.787Z,60.90
2019-03-06T16:18:32.718Z,61.86
2019-03-06T16:23:28.720Z,61.77
2019-03-06T16:28:24.698Z,63.14
2019-03-06T16:33:22.597Z,63.33
2019-03-06T16:38:18.718Z,62.01
2019-03-06T16:43:14.647Z,61.29
2019-03-06T16:48:10.559Z,60.41
2019-03-06T16:53:10.575Z,59.91
2019-03-06T16:58:06.760Z,59.84
2019-03-06T17:03:06.459Z,60.28
2019-03-06T17:08:02.879Z,59.52
2019-03-06T17:13:02.032Z,60.78
2019-03-06T17:17:59.667Z,58.86
2019-03-06T17:22:56.159Z,59.68
2019-03-06T17:27:53.991Z,58.84
2019-03-06T17:33:24.821Z,59.24
2019-03-06T17:38:22.859Z,58.84
2019-03-06T17:43:19.594Z,58.65
2019-03-06T17:48:15.609Z,58.63
2019-03-06T17:53:12.897Z,58.21
2019-03-06T17:58:09.881Z,57.94
2019-03-06T18:03:08.147Z,57.96
2019-03-06T18:08:04.161Z,57.04
2019-03-06T18:13:00.186Z,56.58
2019-03-06T18:17:57.731Z,56.97
2019-03-06T18:22:55.173Z,57.06
2019-03-06T18:27:51.357Z,56.94
2019-03-06T18:32:47.370Z,56.79
2019-03-06T18:37:43.854Z,56.68
2019-03-06T18:42:39.861Z,56.71
2019-03-06T18:47:35.767Z,56.83
2019-03-06T18:52:31.683Z,56.83
2019-03-06T18:57:27.622Z,57.25
2019-03-06T19:02:23.538Z,57.59
2019-03-06T19:07:19.843Z,58.75
2019-03-06T19:12:15.758Z,58.72
2019-03-06T19:17:11.678Z,58.83
2019-03-06T19:22:07.762Z,58.39
2019-03-06T19:27:03.771Z,59.58
2019-03-06T19:31:59.740Z,60.74
2019-03-06T19:36:55.667Z,60.51
2019-03-06T19:41:51.627Z,60.68
2019-03-06T19:46:47.542Z,61.97
2019-03-06T19:51:51.324Z,62.12
2019-03-06T19:56:43.150Z,62.41
2019-03-06T20:01:39.115Z,63.21
2019-03-06T20:06:35.450Z,64.79
2019-03-06T20:11:31.406Z,65.46
2019-03-06T20:16:27.996Z,65.38
2019-03-06T20:21:27.925Z,65.95
2019-03-06T20:26:24.230Z,66.46
2019-03-06T20:31:20.782Z,66.91
2019-03-06T20:36:16.671Z,66.89
2019-03-06T20:41:12.774Z,66.74
2019-03-06T20:46:08.883Z,67.11
2019-03-06T20:51:05.143Z,67.09
2019-03-06T20:56:01.080Z,67.03
2019-03-06T21:00:58.301Z,67.44
2019-03-06T21:05:54.417Z,67.39
2019-03-06T21:10:50.326Z,67.62
2019-03-06T21:15:46.234Z,68.68
2019-03-06T21:20:43.491Z,68.71
2019-03-06T21:25:39.548Z,69.67
2019-03-06T21:30:42.832Z,71.02
2019-03-06T21:35:38.941Z,72.20
2019-03-06T21:40:34.867Z,72.77
2019-03-06T21:45:30.779Z,73.56
2019-03-06T21:50:26.810Z,74.07
2019-03-06T21:55:22.718Z,75.07
2019-03-06T22:00:20.139Z,76.11
2019-03-06T22:05:16.326Z,77.18
2019-03-06T22:10:16.312Z,77.84
2019-03-06T22:15:19.767Z,78.79
2019-03-06T22:20:21.589Z,79.19
2019-03-06T22:25:18.447Z,79.68
2019-03-06T22:30:18.886Z,80.39
2019-03-06T22:35:14.996Z,80.70
2019-03-06T22:40:15.174Z,81.30
2019-03-06T22:45:12.986Z,81.68
2019-03-06T22:50:15.798Z,81.80
2019-03-06T22:55:14.078Z,81.50
2019-03-06T23:00:29.234Z,80.77
2019-03-06T23:05:26.760Z,80.25
2019-03-06T23:10:23.091Z,79.43
2019-03-06T23:15:19.003Z,78.71
2019-03-06T23:20:15.773Z,78.37
2019-03-06T23:25:11.882Z,78.41
2019-03-06T23:30:10.207Z,78.44
2019-03-06T23:35:06.519Z,77.83
2019-03-06T23:40:04.826Z,77.63
2019-03-06T23:45:00.851Z,76.39
2019-03-06T23:49:57.512Z,75.56
2019-03-06T23:54:53.535Z,75.65
2019-03-06T23:59:49.497Z,75.01
